Terminal Aerodrome Forecast
Issued by NWS Sioux Falls, SD

Home | Current Version | Previous Version | Graphics & Text | Print | Product List | Glossary On
Versions: 1 2 3 4 5 6 7 8 9 10 11 12 13 14 15 16 17 18 19 20 21 22 23 24 25 26
000
FTUS43 KFSD 200520
TAFSUX
TAF
KSUX 200520Z 2006/2106 16009KT P6SM SKC WS010/19040KT
     FM201500 16014G22KT P6SM FEW250
     FM201800 17020G30KT P6SM FEW250
     FM202000 17020G31KT P6SM BKN040=

USA.gov is the U.S. government's official web portal to all federal, state and local government web resources and services.